Time;durP1;ratioP1;P1;durP2;ratioP2;P2;SDS_P1;SDS_P2;PMS_P1;PMS_P2;Temp;Humidity;BMP_temperature;BMP_pressure;BME280_temperature;BME280_humidity;BME280_pressure;Samples;Min_cycle;Max_cycle;Signal;HPM_P1;HPM_P2
2022/08/28 00:00:11;;;;;;;11.20;4.05;;;23.90;92.10;;;;;;4865903;29;20100;-87
2022/08/28 00:02:39;;;;;;;9.18;4.60;;;23.80;91.80;;;;;;4863022;29;20044;-87
2022/08/28 00:05:10;;;;;;;8.10;3.72;;;23.80;92.10;;;;;;4868965;29;20053;-88
2022/08/28 00:07:38;;;;;;;7.30;3.40;;;23.60;92.20;;;;;;4860064;29;20525;-86
2022/08/28 00:10:10;;;;;;;8.50;3.58;;;23.60;91.60;;;;;;4851351;29;20119;-88
2022/08/28 00:12:38;;;;;;;6.78;3.28;;;23.60;91.10;;;;;;4850570;29;20041;-87
2022/08/28 00:15:11;;;;;;;11.35;4.40;;;23.70;90.70;;;;;;4873735;29;20051;-88
2022/08/28 00:17:39;;;;;;;5.45;3.30;;;23.70;90.80;;;;;;4863222;29;20048;-87
2022/08/28 00:20:09;;;;;;;5.70;3.92;;;23.70;90.60;;;;;;4862743;29;20045;-88
2022/08/28 00:22:37;;;;;;;8.90;3.95;;;23.70;90.40;;;;;;4856854;29;20040;-88
2022/08/28 00:25:11;;;;;;;6.85;4.07;;;23.80;90.70;;;;;;4856257;29;20045;-88
2022/08/28 00:27:53;;;;;;;5.57;3.40;;;23.80;90.40;;;;;;4858180;29;20055;-86
2022/08/28 00:30:37;;;;;;;11.70;3.85;;;23.90;90.30;;;;;;4858841;29;20044;-87
2022/08/28 00:33:12;;;;;;;9.63;3.78;;;23.90;90.60;;;;;;4857193;29;20045;-87
2022/08/28 00:35:41;;;;;;;9.63;3.92;;;23.90;90.20;;;;;;4859002;29;20040;-86
2022/08/28 00:38:10;;;;;;;9.45;4.05;;;23.90;90.30;;;;;;4857296;29;20052;-87
2022/08/28 00:40:39;;;;;;;8.52;3.92;;;24.00;90.70;;;;;;4870006;29;20310;-88
2022/08/28 00:43:08;;;;;;;10.13;3.63;;;23.90;90.90;;;;;;4868608;29;20140;-88
2022/08/28 00:45:36;;;;;;;10.98;3.75;;;23.90;91.40;;;;;;4870542;29;20454;-86
2022/08/28 00:48:06;;;;;;;8.65;3.55;;;23.90;91.80;;;;;;4856562;29;20456;-88
2022/08/28 00:53:28;;;;;;;9.57;4.30;;;23.90;93.20;;;;;;4872807;29;20057;-87
2022/08/28 00:56:01;;;;;;;;;;;23.90;93.50;;;;;;4878118;29;20055;-87
2022/08/28 00:58:42;;;;;;;9.27;3.72;;;23.90;93.70;;;;;;4868681;29;19927;-90
2022/08/28 01:01:11;;;;;;;7.53;3.45;;;23.90;93.80;;;;;;4883262;29;20549;-87
2022/08/28 01:03:39;;;;;;;7.28;3.90;;;23.80;94.30;;;;;;4864002;29;20053;-85
2022/08/28 01:06:07;;;;;;;10.88;3.97;;;23.80;94.80;;;;;;4867580;29;20123;-88
2022/08/28 01:08:37;;;;;;;10.65;3.75;;;23.70;95.00;;;;;;4865684;29;20550;-87
2022/08/28 01:11:06;;;;;;;7.22;4.10;;;23.80;94.90;;;;;;4864332;29;20064;-87
2022/08/28 01:13:37;;;;;;;9.98;3.55;;;23.80;95.20;;;;;;4865707;29;20055;-86
2022/08/28 01:16:06;;;;;;;10.07;3.88;;;23.70;95.40;;;;;;4865345;29;20107;-87
2022/08/28 01:18:34;;;;;;;11.23;4.03;;;23.70;95.70;;;;;;4864546;29;20403;-86
2022/08/28 01:21:22;;;;;;;10.90;3.80;;;23.60;95.60;;;;;;4866356;29;20059;-86
2022/08/28 01:23:58;;;;;;;8.32;3.05;;;23.60;95.40;;;;;;4856206;29;20566;-86
2022/08/28 01:26:28;;;;;;;8.15;3.30;;;23.60;95.50;;;;;;4867059;29;20044;-87
2022/08/28 01:28:57;;;;;;;8.20;3.72;;;23.60;95.10;;;;;;4864345;29;20040;-85
2022/08/28 01:31:28;;;;;;;10.57;3.40;;;23.70;94.60;;;;;;4880428;29;20056;-87
2022/08/28 01:33:58;;;;;;;10.27;3.22;;;23.70;94.70;;;;;;4862485;29;20049;-88
2022/08/28 01:36:25;;;;;;;13.13;3.38;;;23.60;95.20;;;;;;4858757;29;20072;-87
2022/08/28 01:39:16;;;;;;;9.68;4.13;;;23.50;95.80;;;;;;4861742;29;20143;-89
2022/08/28 01:41:46;;;;;;;10.60;3.35;;;23.40;96.50;;;;;;4870083;29;20139;-87
2022/08/28 01:44:16;;;;;;;5.75;3.17;;;23.30;97.20;;;;;;4887962;29;20045;-86
2022/08/28 01:46:45;;;;;;;9.60;3.47;;;23.20;96.90;;;;;;4862431;29;20049;-87
2022/08/28 01:49:13;;;;;;;8.77;2.67;;;23.20;96.40;;;;;;4866485;29;20067;-85
2022/08/28 01:51:41;;;;;;;5.28;2.10;;;23.20;95.90;;;;;;4865175;29;20131;-86
2022/08/28 01:54:09;;;;;;;12.02;3.17;;;23.20;95.10;;;;;;4861601;29;20143;-87
2022/08/28 01:56:39;;;;;;;8.73;2.17;;;23.10;94.80;;;;;;4859182;29;20076;-88
2022/08/28 01:59:08;;;;;;;10.75;2.78;;;23.10;94.40;;;;;;4862116;29;20417;-88
2022/08/28 02:01:36;;;;;;;8.55;2.10;;;23.00;94.10;;;;;;4862674;29;20722;-89
2022/08/28 02:04:05;;;;;;;6.63;1.77;;;23.00;93.80;;;;;;4861805;29;20053;-95
2022/08/28 02:06:33;;;;;;;5.65;2.30;;;23.00;93.70;;;;;;4877193;29;20048;-87
2022/08/28 02:09:00;;;;;;;4.40;2.00;;;23.00;93.40;;;;;;4876496;29;20032;-90
2022/08/28 02:11:29;;;;;;;4.70;1.65;;;22.90;93.40;;;;;;4864494;29;20048;-86
2022/08/28 02:13:57;;;;;;;8.82;2.15;;;22.80;93.50;;;;;;4879597;29;20490;-83
2022/08/28 02:16:25;;;;;;;4.75;2.03;;;22.90;93.60;;;;;;4878487;29;20502;-86
2022/08/28 02:18:53;;;;;;;4.47;1.63;;;22.80;93.60;;;;;;4873323;29;20072;-88
2022/08/28 02:21:20;;;;;;;3.97;2.00;;;22.80;93.70;;;;;;4878154;29;20045;-86
2022/08/28 02:23:48;;;;;;;3.42;1.80;;;22.70;94.20;;;;;;4863741;29;21051;-84
2022/08/28 02:26:16;;;;;;;3.58;1.67;;;22.70;94.30;;;;;;4867484;29;20061;-87
2022/08/28 02:28:43;;;;;;;4.32;1.98;;;22.60;94.50;;;;;;4862861;29;20557;-86
2022/08/28 02:31:10;;;;;;;8.18;2.38;;;22.60;94.70;;;;;;4870251;29;20134;-89
2022/08/28 02:33:40;;;;;;;7.07;2.38;;;22.70;94.60;;;;;;4881093;29;20044;-88
2022/08/28 02:36:09;;;;;;;7.38;2.17;;;22.90;94.10;;;;;;4858780;29;20055;-89
2022/08/28 02:38:37;;;;;;;5.85;1.65;;;23.00;93.80;;;;;;4865414;29;20061;-87
2022/08/28 02:41:05;;;;;;;9.65;2.80;;;23.00;93.70;;;;;;4858794;29;20070;-86
2022/08/28 02:43:33;;;;;;;5.53;2.20;;;22.70;94.20;;;;;;4865104;29;20053;-87
2022/08/28 02:46:01;;;;;;;4.25;2.03;;;22.60;94.70;;;;;;4860225;29;20056;-87
2022/08/28 02:48:30;;;;;;;4.00;2.08;;;22.70;94.80;;;;;;4867974;29;20053;-86
2022/08/28 02:51:01;;;;;;;6.47;2.05;;;22.70;94.50;;;;;;4862325;29;20052;-87
2022/08/28 02:53:29;;;;;;;5.13;2.20;;;22.70;94.90;;;;;;4858324;29;20092;-87
2022/08/28 02:55:58;;;;;;;4.22;1.98;;;22.50;95.00;;;;;;4864541;29;20044;-87
2022/08/28 02:58:28;;;;;;;4.13;2.00;;;22.40;95.80;;;;;;4859976;29;20609;-90
2022/08/28 03:00:56;;;;;;;5.18;1.92;;;22.50;95.50;;;;;;4869161;29;20108;-84
2022/08/28 03:03:26;;;;;;;5.00;2.17;;;22.60;95.40;;;;;;4861489;29;20072;-87
2022/08/28 03:05:54;;;;;;;5.18;1.90;;;22.60;95.20;;;;;;4858472;29;20112;-85
2022/08/28 03:08:23;;;;;;;5.57;2.25;;;22.60;95.00;;;;;;4862263;29;20458;-85
2022/08/28 03:10:53;;;;;;;10.20;2.22;;;22.50;95.30;;;;;;4865937;29;20048;-86
2022/08/28 03:13:22;;;;;;;7.13;2.30;;;22.40;95.20;;;;;;4860076;29;20044;-87
2022/08/28 03:15:53;;;;;;;;;;;22.60;95.30;;;;;;4864423;29;20052;-88
2022/08/28 03:18:23;;;;;;;4.30;2.42;;;22.60;95.00;;;;;;4876410;29;19935;-86
2022/08/28 03:20:52;;;;;;;8.25;1.98;;;22.60;95.00;;;;;;4865300;29;20052;-87
2022/08/28 03:23:25;;;;;;;3.65;2.00;;;22.60;95.00;;;;;;4864804;29;20164;-89
2022/08/28 03:25:56;;;;;;;4.90;1.85;;;22.60;94.90;;;;;;4857526;29;20048;-88
2022/08/28 03:28:26;;;;;;;8.50;2.20;;;22.40;95.20;;;;;;4865095;29;20497;-88
2022/08/28 03:30:53;;;;;;;4.57;2.25;;;22.30;95.80;;;;;;4874654;29;20067;-88
2022/08/28 03:33:21;;;;;;;3.35;2.40;;;22.50;95.60;;;;;;4861049;29;20513;-87
2022/08/28 03:35:49;;;;;;;6.28;2.42;;;22.50;95.50;;;;;;4857293;29;20487;-87
2022/08/28 03:38:17;;;;;;;5.03;2.05;;;22.30;96.00;;;;;;4871168;29;20506;-86
2022/08/28 03:40:46;;;;;;;5.43;2.83;;;22.40;96.10;;;;;;4852754;29;20049;-89
2022/08/28 03:43:16;;;;;;;5.75;2.08;;;22.30;96.10;;;;;;4863912;29;20056;-87
2022/08/28 03:46:14;;;;;;;4.90;2.25;;;22.40;96.20;;;;;;4864592;29;20049;-88
2022/08/28 03:48:42;;;;;;;4.55;1.95;;;22.40;95.80;;;;;;4853650;29;20045;-87
2022/08/28 03:51:18;;;;;;;5.13;2.13;;;22.30;96.20;;;;;;4859255;29;20061;-86
2022/08/28 03:53:51;;;;;;;6.38;2.55;;;22.30;96.30;;;;;;4855721;29;20073;-88
2022/08/28 03:56:22;;;;;;;7.05;2.75;;;22.20;96.70;;;;;;4862327;29;20053;-87
2022/08/28 03:58:53;;;;;;;4.07;1.90;;;22.20;96.90;;;;;;4876026;29;20135;-86
2022/08/28 04:01:21;;;;;;;7.53;2.13;;;22.30;96.90;;;;;;4861940;29;20052;-89
2022/08/28 04:03:48;;;;;;;7.60;3.13;;;22.20;96.70;;;;;;4863237;29;20124;-87
2022/08/28 04:06:17;;;;;;;5.07;2.13;;;22.20;96.70;;;;;;4865582;29;20071;-87
2022/08/28 04:08:44;;;;;;;4.75;2.33;;;22.20;97.10;;;;;;4863250;29;20048;-89
2022/08/28 04:11:12;;;;;;;5.78;2.25;;;22.20;97.20;;;;;;4862029;29;20041;-88
2022/08/28 04:13:40;;;;;;;6.43;2.35;;;22.30;97.30;;;;;;4860785;29;20076;-86
2022/08/28 04:16:11;;;;;;;5.60;2.28;;;22.30;96.70;;;;;;4873555;29;20139;-88
2022/08/28 04:18:40;;;;;;;4.95;2.03;;;22.30;96.60;;;;;;4863980;29;20055;-88
2022/08/28 04:21:11;;;;;;;3.75;2.28;;;22.20;96.80;;;;;;4860383;29;20487;-86
2022/08/28 04:23:42;;;;;;;8.63;2.55;;;22.20;96.90;;;;;;4862395;29;20052;-88
2022/08/28 04:26:12;;;;;;;4.95;2.25;;;22.20;96.60;;;;;;4878988;29;20056;-87
2022/08/28 04:28:40;;;;;;;4.57;2.03;;;22.20;96.80;;;;;;4863239;29;20124;-88
2022/08/28 04:31:07;;;;;;;6.97;2.17;;;22.20;97.00;;;;;;4863291;29;20040;-86
2022/08/28 04:33:37;;;;;;;4.63;2.17;;;22.30;96.60;;;;;;4859040;29;20050;-87
2022/08/28 04:36:07;;;;;;;4.70;2.22;;;22.00;97.30;;;;;;4864767;29;20052;-86
2022/08/28 04:38:36;;;;;;;5.97;2.40;;;22.10;97.20;;;;;;4866391;29;20048;-89
2022/08/28 04:41:12;;;;;;;3.53;2.03;;;22.00;97.60;;;;;;4863561;29;20097;-89
2022/08/28 04:43:40;;;;;;;4.20;2.70;;;22.20;97.30;;;;;;4866571;29;20045;-87
2022/08/28 04:46:11;;;;;;;4.70;2.03;;;22.20;97.10;;;;;;4864175;29;20057;-91
2022/08/28 04:48:39;;;;;;;5.22;2.15;;;22.20;97.00;;;;;;4866871;29;20040;-85
2022/08/28 04:51:09;;;;;;;5.20;2.33;;;22.30;96.90;;;;;;4859568;29;20049;-86
2022/08/28 04:53:37;;;;;;;4.68;2.20;;;22.30;96.90;;;;;;4863166;29;20557;-92
2022/08/28 04:56:08;;;;;;;4.63;2.10;;;22.40;96.90;;;;;;4866813;29;20071;-85
2022/08/28 04:58:36;;;;;;;3.10;2.10;;;22.30;97.10;;;;;;4879670;29;20064;-89
2022/08/28 05:01:11;;;;;;;5.75;2.38;;;22.40;96.90;;;;;;4895593;29;20398;-87
2022/08/28 05:03:39;;;;;;;7.90;2.85;;;22.50;96.70;;;;;;4863557;29;20052;-86
2022/08/28 05:06:08;;;;;;;5.25;2.33;;;22.50;96.40;;;;;;4882832;29;20076;-88
2022/08/28 05:08:35;;;;;;;5.75;2.63;;;22.40;96.70;;;;;;4867838;29;20037;-91
2022/08/28 05:11:20;;;;;;;5.82;2.60;;;22.50;96.70;;;;;;4866904;29;20077;-87
2022/08/28 05:14:06;;;;;;;5.85;2.47;;;22.60;96.60;;;;;;4865634;29;20147;-87
2022/08/28 05:16:43;;;;;;;4.15;1.98;;;22.50;96.30;;;;;;4881108;29;20052;-88
2022/08/28 05:19:12;;;;;;;5.03;2.40;;;22.30;96.80;;;;;;4888337;29;20052;-87
2022/08/28 05:21:39;;;;;;;7.80;2.28;;;22.50;96.90;;;;;;4863294;29;20045;-86
2022/08/28 05:24:07;;;;;;;3.92;2.17;;;22.50;96.30;;;;;;4874386;29;20059;-88
2022/08/28 05:26:36;;;;;;;5.22;2.10;;;22.40;96.40;;;;;;4864483;29;20059;-89
2022/08/28 05:29:07;;;;;;;9.55;2.60;;;22.50;96.40;;;;;;4862294;29;20175;-88
2022/08/28 05:31:36;;;;;;;4.78;2.38;;;22.60;96.10;;;;;;4879080;29;20049;-89
2022/08/28 05:34:04;;;;;;;3.65;2.17;;;22.60;95.70;;;;;;4878183;29;20049;-87
2022/08/28 05:36:35;;;;;;;3.97;1.83;;;22.60;95.70;;;;;;4881151;29;20578;-87
2022/08/28 05:39:06;;;;;;;5.82;2.42;;;22.80;95.30;;;;;;4862730;29;20053;-88
2022/08/28 05:41:34;;;;;;;5.68;2.15;;;22.90;95.10;;;;;;4873747;29;20061;-87
2022/08/28 05:44:07;;;;;;;6.38;2.15;;;22.90;94.40;;;;;;4865844;29;20048;-87
2022/08/28 05:46:37;;;;;;;7.47;2.35;;;23.00;94.30;;;;;;4866935;29;20053;-88
2022/08/28 05:49:06;;;;;;;3.80;2.22;;;23.10;93.90;;;;;;4865177;29;20048;-86
2022/08/28 05:51:40;;;;;;;4.93;2.42;;;23.10;94.00;;;;;;4862210;29;20513;-87
2022/08/28 05:54:08;;;;;;;5.00;2.17;;;23.10;93.60;;;;;;4864968;29;20053;-87
2022/08/28 05:56:38;;;;;;;5.65;2.33;;;23.10;93.60;;;;;;4872280;29;20296;-85
2022/08/28 05:59:06;;;;;;;3.83;2.03;;;23.20;93.40;;;;;;4860036;29;20049;-90
2022/08/28 06:01:42;;;;;;;6.55;2.30;;;23.30;93.20;;;;;;4862334;29;20112;-86
2022/08/28 06:04:13;;;;;;;6.10;2.13;;;23.40;92.60;;;;;;4862853;29;20052;-86
2022/08/28 06:06:42;;;;;;;5.40;2.13;;;23.50;92.30;;;;;;4866963;29;20083;-89
2022/08/28 06:09:19;;;;;;;4.43;2.20;;;23.60;91.80;;;;;;4866863;29;20135;-88
2022/08/28 06:11:57;;;;;;;5.28;2.10;;;23.70;91.30;;;;;;4860433;29;20410;-88
2022/08/28 06:14:26;;;;;;;3.72;1.75;;;23.80;91.20;;;;;;4863500;29;20049;-87
2022/08/28 06:16:55;;;;;;;4.50;1.90;;;24.00;91.00;;;;;;4862334;29;20069;-90
2022/08/28 06:19:24;;;;;;;7.90;2.17;;;24.20;90.30;;;;;;4863251;29;20091;-87
2022/08/28 06:21:57;;;;;;;3.92;1.90;;;24.30;89.60;;;;;;4880192;29;20055;-88
2022/08/28 06:24:27;;;;;;;3.42;2.00;;;24.50;88.30;;;;;;4865923;29;20049;-87
2022/08/28 06:26:55;;;;;;;3.97;2.00;;;24.60;86.70;;;;;;4866775;29;20056;-87
2022/08/28 06:29:26;;;;;;;5.38;1.83;;;24.70;85.70;;;;;;4867037;29;20112;-87
2022/08/28 06:32:00;;;;;;;5.18;2.08;;;24.80;84.40;;;;;;4864295;29;20151;-92
2022/08/28 06:34:28;;;;;;;6.15;2.10;;;24.90;84.60;;;;;;4858273;29;20075;-88
2022/08/28 06:36:55;;;;;;;5.40;2.10;;;25.00;83.40;;;;;;4861644;29;20524;-87
2022/08/28 06:39:23;;;;;;;7.60;2.50;;;25.20;83.10;;;;;;4865550;29;20139;-87
2022/08/28 06:41:51;;;;;;;4.88;2.15;;;25.30;81.90;;;;;;4862587;29;20068;-89
2022/08/28 06:44:20;;;;;;;4.03;1.45;;;25.30;80.80;;;;;;4862961;29;20060;-87
2022/08/28 06:46:51;;;;;;;4.28;1.92;;;25.50;80.80;;;;;;4876565;29;20770;-87
2022/08/28 06:49:18;;;;;;;4.50;1.83;;;25.50;80.30;;;;;;4864515;29;20053;-87
2022/08/28 06:51:46;;;;;;;4.25;1.90;;;25.60;78.80;;;;;;4865451;29;20055;-89
2022/08/28 06:54:17;;;;;;;4.88;1.70;;;25.70;78.40;;;;;;4856947;29;20059;-87
2022/08/28 06:56:50;;;;;;;6.43;2.25;;;25.70;78.10;;;;;;4879013;29;20087;-86
2022/08/28 06:59:18;;;;;;;3.38;1.80;;;25.80;77.50;;;;;;4856954;29;20044;-88
2022/08/28 07:01:45;;;;;;;4.13;2.00;;;25.90;77.00;;;;;;4860471;29;20053;-92
2022/08/28 07:04:13;;;;;;;6.57;2.38;;;26.00;77.00;;;;;;4880584;29;20047;-86
2022/08/28 07:06:44;;;;;;;3.72;1.98;;;26.20;76.00;;;;;;4875839;29;20053;-86
2022/08/28 07:09:13;;;;;;;3.38;1.75;;;26.30;74.50;;;;;;4856190;29;20499;-87
2022/08/28 07:11:45;;;;;;;5.80;1.92;;;26.40;74.40;;;;;;4864406;29;20048;-87
2022/08/28 07:14:12;;;;;;;6.03;1.70;;;26.50;74.60;;;;;;4874743;29;20048;-88
2022/08/28 07:16:40;;;;;;;3.30;1.90;;;26.60;72.80;;;;;;4863067;29;20048;-88
2022/08/28 07:19:10;;;;;;;3.70;1.88;;;26.70;71.70;;;;;;4863256;29;20049;-85
2022/08/28 07:21:41;;;;;;;4.15;1.73;;;26.90;71.20;;;;;;4859801;29;20068;-88
2022/08/28 07:24:10;;;;;;;6.35;1.77;;;26.90;71.30;;;;;;4863511;29;20053;-87
2022/08/28 07:26:39;;;;;;;4.43;1.70;;;27.00;70.40;;;;;;4864466;29;20489;-94
2022/08/28 07:29:07;;;;;;;10.88;2.90;;;27.10;70.20;;;;;;4873923;29;20041;-88
2022/08/28 07:31:44;;;;;;;4.55;1.50;;;27.00;70.10;;;;;;4865706;29;20541;-86
2022/08/28 07:34:12;;;;;;;2.83;1.75;;;26.90;70.20;;;;;;4874414;29;20044;-86
2022/08/28 07:36:41;;;;;;;3.35;1.80;;;26.90;70.80;;;;;;4854915;29;20056;-86
2022/08/28 07:39:10;;;;;;;2.83;1.70;;;27.10;69.30;;;;;;4874311;29;20041;-85
2022/08/28 07:41:39;;;;;;;5.90;2.05;;;27.20;68.70;;;;;;4861921;29;20057;-87
2022/08/28 07:46:57;;;;;;;4.28;1.60;;;27.50;68.30;;;;;;4878387;29;20052;-85
2022/08/28 07:49:24;;;;;;;4.63;1.58;;;27.60;66.90;;;;;;4881093;29;20048;-86
2022/08/28 07:51:52;;;;;;;5.10;1.77;;;27.70;68.10;;;;;;4861003;29;20498;-87
2022/08/28 07:54:22;;;;;;;3.78;1.92;;;27.70;66.90;;;;;;4864906;29;20048;-87
2022/08/28 07:56:50;;;;;;;3.90;1.80;;;27.80;65.90;;;;;;4859647;29;20049;-86
2022/08/28 07:59:17;;;;;;;4.40;1.70;;;27.80;66.10;;;;;;4879026;29;20055;-90
2022/08/28 08:01:49;;;;;;;5.43;1.85;;;27.90;66.60;;;;;;4858838;29;20041;-86
2022/08/28 08:04:18;;;;;;;4.15;1.58;;;28.00;65.30;;;;;;4876252;29;20065;-86
2022/08/28 08:06:46;;;;;;;4.22;1.52;;;28.00;66.00;;;;;;4879149;29;20056;-84
2022/08/28 08:09:15;;;;;;;4.47;1.77;;;28.10;66.80;;;;;;4881031;29;20044;-87
2022/08/28 08:11:43;;;;;;;6.53;1.85;;;28.20;66.30;;;;;;4863281;29;20533;-85
2022/08/28 08:14:11;;;;;;;5.53;1.80;;;28.30;66.00;;;;;;4863307;29;20429;-85
2022/08/28 08:16:42;;;;;;;3.58;1.75;;;28.30;65.30;;;;;;4865426;29;20063;-84
2022/08/28 08:19:14;;;;;;;6.13;1.20;;;28.30;65.00;;;;;;4864852;29;20052;-87
2022/08/28 08:21:44;;;;;;;5.45;2.10;;;28.50;64.80;;;;;;4858222;29;20048;-87
2022/08/28 08:24:14;;;;;;;3.22;2.10;;;28.50;63.60;;;;;;4892059;29;20093;-87
2022/08/28 08:26:50;;;;;;;4.25;1.60;;;28.50;63.60;;;;;;4879513;29;20547;-86
2022/08/28 08:29:37;;;;;;;2.78;1.52;;;28.60;64.10;;;;;;4859466;29;20140;-85
2022/08/28 08:32:09;;;;;;;6.70;2.38;;;28.60;63.80;;;;;;4865173;29;20183;-86
2022/08/28 08:34:40;;;;;;;3.97;1.60;;;28.50;63.00;;;;;;4867132;29;20053;-85
2022/08/28 08:37:08;;;;;;;3.92;2.05;;;28.50;64.00;;;;;;4865821;29;20040;-85
2022/08/28 08:39:36;;;;;;;4.30;2.15;;;28.50;64.10;;;;;;4883138;29;20104;-85
2022/08/28 08:42:09;;;;;;;6.03;1.88;;;28.40;64.80;;;;;;4862856;29;20045;-86
2022/08/28 08:44:40;;;;;;;5.07;2.20;;;28.40;64.50;;;;;;4860396;29;20069;-87
2022/08/28 08:47:21;;;;;;;3.85;1.73;;;28.40;64.30;;;;;;4882147;29;20045;-86
2022/08/28 08:50:01;;;;;;;2.65;1.50;;;28.50;64.90;;;;;;4875216;29;20553;-85
2022/08/28 08:52:37;;;;;;;3.70;2.13;;;28.50;63.20;;;;;;4862086;29;20063;-85
2022/08/28 08:55:23;;;;;;;9.10;3.63;;;28.60;64.00;;;;;;4864844;29;20809;-86
2022/08/28 08:57:58;;;;;;;2.05;1.27;;;28.50;64.80;;;;;;4863331;29;20051;-88
2022/08/28 09:00:26;;;;;;;5.38;1.98;;;28.60;63.80;;;;;;4875332;29;20048;-86
2022/08/28 09:03:03;;;;;;;5.10;2.53;;;28.60;64.60;;;;;;4875825;29;20045;-84
2022/08/28 09:05:45;;;;;;;3.03;1.70;;;28.60;63.20;;;;;;4881793;29;20053;-86
2022/08/28 09:08:24;;;;;;;4.15;1.95;;;28.60;64.00;;;;;;4881299;29;20562;-85
2022/08/28 09:11:00;;;;;;;5.10;1.90;;;28.70;63.60;;;;;;4861099;29;20135;-84
2022/08/28 09:14:00;;;;;;;3.58;1.67;;;28.80;62.80;;;;;;4860391;29;20056;-84
2022/08/28 09:16:41;;;;;;;4.45;1.70;;;28.70;63.90;;;;;;4869104;29;20100;-85
2022/08/28 09:19:16;;;;;;;6.82;1.70;;;28.80;62.30;;;;;;4881256;29;20124;-86
2022/08/28 09:21:45;;;;;;;4.40;1.95;;;28.80;62.50;;;;;;4878094;29;20053;-88
2022/08/28 09:24:19;;;;;;;6.07;1.80;;;28.80;62.50;;;;;;4867067;29;20074;-85
2022/08/28 09:27:04;;;;;;;3.88;2.10;;;28.90;62.80;;;;;;4863067;29;20067;-84
2022/08/28 09:29:42;;;;;;;5.93;2.10;;;28.80;63.30;;;;;;4878373;29;20044;-85
2022/08/28 09:32:23;;;;;;;4.20;2.25;;;28.80;64.70;;;;;;4880547;29;20051;-84
2022/08/28 09:35:14;;;;;;;3.75;2.08;;;28.80;64.00;;;;;;4866008;29;20143;-83
2022/08/28 09:37:43;;;;;;;5.60;1.90;;;28.80;63.60;;;;;;4857757;29;20064;-85
2022/08/28 09:40:18;;;;;;;5.63;2.00;;;28.80;63.40;;;;;;4861016;29;20049;-87
2022/08/28 09:46:03;;;;;;;5.13;2.45;;;28.90;62.80;;;;;;4873759;29;20071;-84
2022/08/28 09:48:33;;;;;;;7.13;2.28;;;28.90;63.10;;;;;;4871661;29;20584;-85
2022/08/28 09:51:03;;;;;;;6.10;2.03;;;28.90;62.90;;;;;;4881826;29;20059;-85
2022/08/28 09:53:55;;;;;;;4.70;1.77;;;28.90;63.70;;;;;;4865796;29;20045;-86
2022/08/28 09:56:32;;;;;;;10.05;2.67;;;28.90;64.10;;;;;;4864181;29;20067;-85
2022/08/28 09:59:10;;;;;;;5.55;2.05;;;29.00;63.80;;;;;;4862407;29;20053;-85
2022/08/28 10:01:45;;;;;;;4.53;1.98;;;29.10;62.70;;;;;;4863106;29;20052;-85
2022/08/28 10:04:22;;;;;;;4.88;2.20;;;29.10;63.10;;;;;;4861464;29;20051;-86
2022/08/28 10:07:14;;;;;;;2.63;1.80;;;29.20;62.60;;;;;;4882503;29;20101;-86
2022/08/28 10:10:28;;;;;;;3.28;2.33;;;28.90;63.40;;;;;;4867298;29;20045;-83
2022/08/28 10:13:03;;;;;;;5.55;2.28;;;28.80;62.80;;;;;;4806884;29;20052;-86
2022/08/28 10:15:36;;;;;;;5.53;2.28;;;28.80;63.10;;;;;;4865063;29;20045;-85
2022/08/28 10:18:34;;;;;;;3.65;2.15;;;28.90;63.80;;;;;;4862113;29;20100;-85
2022/08/28 10:21:01;;;;;;;10.93;2.65;;;29.00;65.30;;;;;;4873470;29;20059;-86
2022/08/28 10:23:40;;;;;;;4.95;2.30;;;29.20;66.00;;;;;;4864716;29;20049;-84
2022/08/28 10:26:45;;;;;;;2.97;2.08;;;29.10;64.70;;;;;;4866516;29;20052;-85
2022/08/28 10:29:26;;;;;;;9.48;2.83;;;29.10;66.10;;;;;;4858908;29;20048;-87
2022/08/28 10:31:56;;;;;;;4.00;2.30;;;29.00;64.80;;;;;;4878373;29;20071;-86
2022/08/28 10:34:47;;;;;;;9.93;2.72;;;29.00;64.20;;;;;;4864339;29;20209;-85
2022/08/28 10:37:35;;;;;;;4.68;2.10;;;29.10;64.30;;;;;;4818147;29;20149;-86
2022/08/28 10:40:10;;;;;;;3.45;2.67;;;29.10;63.70;;;;;;4854751;29;20045;-87
2022/08/28 10:42:45;;;;;;;8.00;2.70;;;29.10;65.10;;;;;;4858499;29;20060;-88
2022/08/28 10:45:21;;;;;;;6.70;2.30;;;29.10;65.50;;;;;;4859891;29;20072;-86
2022/08/28 10:47:55;;;;;;;3.58;2.15;;;29.10;64.10;;;;;;4861323;29;20079;-87
2022/08/28 10:50:37;;;;;;;4.90;2.50;;;29.10;62.80;;;;;;4879025;29;20056;-89
2022/08/28 10:53:12;;;;;;;5.88;2.83;;;29.00;64.50;;;;;;4875182;29;20052;-87
2022/08/28 10:55:57;;;;;;;3.55;2.42;;;29.10;61.80;;;;;;4856327;29;20516;-87
2022/08/28 10:58:26;;;;;;;5.60;2.35;;;29.10;61.80;;;;;;4872167;29;20052;-88
2022/08/28 11:01:04;;;;;;;4.43;2.00;;;29.20;62.90;;;;;;4862996;29;20055;-85
2022/08/28 11:03:41;;;;;;;6.28;2.60;;;29.30;63.20;;;;;;4871620;29;20379;-87
2022/08/28 11:06:15;;;;;;;6.60;2.60;;;29.20;61.70;;;;;;4870771;29;20232;-87
2022/08/28 11:08:51;;;;;;;5.47;2.47;;;29.30;62.60;;;;;;4875644;29;20055;-88
2022/08/28 11:11:45;;;;;;;5.63;2.60;;;29.30;62.90;;;;;;4853458;29;20052;-87
2022/08/28 11:14:39;;;;;;;8.25;2.50;;;29.20;62.20;;;;;;4857358;29;20052;-88
2022/08/28 11:17:20;;;;;;;4.38;2.30;;;29.30;62.90;;;;;;4872435;29;20063;-87
2022/08/28 11:20:02;;;;;;;5.20;2.35;;;29.40;61.40;;;;;;4871567;29;20060;-87
2022/08/28 11:22:48;;;;;;;4.95;2.45;;;29.40;62.10;;;;;;4852292;29;20060;-88
2022/08/28 11:25:30;;;;;;;7.45;2.13;;;29.40;62.20;;;;;;4860117;29;20052;-87
2022/08/28 11:28:23;;;;;;;4.40;2.60;;;29.40;62.40;;;;;;4864069;29;20256;-87
2022/08/28 11:31:05;;;;;;;6.22;2.58;;;29.40;63.70;;;;;;4867892;29;20064;-88
2022/08/28 11:33:40;;;;;;;6.55;2.78;;;29.50;63.40;;;;;;4875119;29;20510;-87
2022/08/28 11:36:18;;;;;;;5.25;2.88;;;29.50;63.20;;;;;;4874237;29;20757;-86
2022/08/28 11:38:51;;;;;;;3.70;2.60;;;29.60;61.60;;;;;;4879638;29;20051;-88
2022/08/28 11:41:32;;;;;;;3.22;2.40;;;29.40;61.00;;;;;;4859714;29;20068;-89
2022/08/28 11:44:09;;;;;;;5.35;2.80;;;29.50;62.50;;;;;;4871324;29;20136;-86
2022/08/28 11:46:37;;;;;;;5.72;2.78;;;29.60;63.40;;;;;;4859670;29;20060;-87
2022/08/28 11:49:27;;;;;;;5.30;2.78;;;29.50;63.80;;;;;;4874511;29;20049;-87
2022/08/28 11:52:13;;;;;;;4.40;2.65;;;29.60;62.40;;;;;;4875766;29;20545;-87
2022/08/28 11:55:07;;;;;;;5.07;2.30;;;29.60;63.40;;;;;;4876777;29;20159;-87
2022/08/28 11:57:56;;;;;;;5.80;2.97;;;29.50;63.50;;;;;;4854517;29;20044;-87
2022/08/28 12:00:58;;;;;;;3.50;2.15;;;29.60;62.30;;;;;;4861391;29;20041;-88
2022/08/28 12:03:39;;;;;;;6.22;2.13;;;29.60;62.50;;;;;;4862112;29;20045;-88
2022/08/28 12:06:07;;;;;;;4.22;2.38;;;29.60;62.40;;;;;;4857726;29;20143;-87
2022/08/28 12:08:44;;;;;;;6.13;2.58;;;29.60;63.20;;;;;;4859256;29;20053;-88
2022/08/28 12:11:40;;;;;;;5.50;2.42;;;29.60;61.50;;;;;;4868243;29;20121;-87
2022/08/28 12:14:08;;;;;;;5.20;2.25;;;29.50;61.20;;;;;;4867761;29;20136;-87
2022/08/28 12:16:57;;;;;;;5.25;2.38;;;29.50;62.10;;;;;;4859587;29;20052;-86
2022/08/28 12:19:40;;;;;;;5.65;2.17;;;29.60;62.70;;;;;;4857381;29;20466;-86
2022/08/28 12:22:38;;;;;;;4.35;2.13;;;29.60;63.30;;;;;;4873978;29;20093;-86
2022/08/28 12:25:11;;;;;;;6.28;2.42;;;29.70;61.20;;;;;;4872735;29;20144;-86
2022/08/28 12:27:39;;;;;;;5.82;2.17;;;29.70;62.10;;;;;;4862463;29;20052;-86
2022/08/28 12:30:07;;;;;;;4.78;2.47;;;29.70;62.70;;;;;;4858342;29;20041;-83
2022/08/28 12:32:34;;;;;;;3.58;2.40;;;29.70;61.90;;;;;;4870943;29;20065;-83
2022/08/28 12:35:02;;;;;;;5.65;2.30;;;29.60;60.70;;;;;;4861650;29;20131;-86
2022/08/28 12:37:44;;;;;;;3.47;2.22;;;29.60;60.80;;;;;;4859475;29;20501;-88
2022/08/28 12:40:31;;;;;;;3.75;2.20;;;29.70;61.00;;;;;;4860926;29;20049;-88
2022/08/28 12:43:05;;;;;;;4.15;2.25;;;29.70;61.00;;;;;;4875193;29;20083;-88
2022/08/28 12:45:52;;;;;;;4.95;2.60;;;29.80;62.80;;;;;;4859722;29;20053;-89
2022/08/28 12:48:32;;;;;;;4.47;2.38;;;29.70;62.90;;;;;;4873934;29;20048;-86
2022/08/28 12:51:06;;;;;;;5.60;2.60;;;29.80;61.60;;;;;;4875090;29;20052;-84
2022/08/28 12:53:42;;;;;;;5.55;2.53;;;29.70;60.90;;;;;;4863657;29;20045;-88
2022/08/28 12:56:11;;;;;;;4.00;2.05;;;29.70;60.60;;;;;;4872895;29;20063;-88
2022/08/28 12:58:40;;;;;;;5.13;2.00;;;29.60;61.50;;;;;;4859338;29;20041;-86
2022/08/28 13:01:20;;;;;;;6.13;3.05;;;29.60;62.40;;;;;;4858255;29;20470;-87
2022/08/28 13:03:58;;;;;;;5.65;2.78;;;29.60;61.50;;;;;;4877311;29;20041;-86
2022/08/28 13:06:35;;;;;;;5.13;2.70;;;29.60;62.00;;;;;;4864068;29;20048;-87
2022/08/28 13:09:04;;;;;;;4.53;2.60;;;29.70;60.90;;;;;;4873501;29;20131;-87
2022/08/28 13:11:44;;;;;;;3.55;2.40;;;29.70;61.60;;;;;;4858231;29;20048;-86
2022/08/28 13:14:12;;;;;;;5.82;2.55;;;29.70;62.10;;;;;;4859257;29;20049;-85
2022/08/28 13:16:45;;;;;;;5.88;2.92;;;29.70;61.70;;;;;;4856416;29;20041;-88
2022/08/28 13:19:30;;;;;;;6.25;2.97;;;29.80;61.10;;;;;;4868027;29;20080;-84
2022/08/28 13:22:07;;;;;;;5.00;3.17;;;29.70;61.00;;;;;;4859855;29;20048;-87
2022/08/28 13:24:34;;;;;;;6.43;2.67;;;29.70;61.70;;;;;;4880288;29;20052;-87